sensor_id;sensor_type;location;lat;lon;timestamp;temperature;humidity
3794;DHT22;1912;51.358;12.282;2023-09-30T03:46:34;14.00;1.00
3794;DHT22;1912;51.358;12.282;2023-09-30T03:49:00;13.90;1.00
3794;DHT22;1912;51.358;12.282;2023-09-30T03:51:28;14.00;1.00
3794;DHT22;1912;51.358;12.282;2023-09-30T03:53:53;13.80;1.00
3794;DHT22;1912;51.358;12.282;2023-09-30T03:56:19;13.90;1.00
3794;DHT22;1912;51.358;12.282;2023-09-30T03:58:47;13.80;1.00
3794;DHT22;1912;51.358;12.282;2023-09-30T04:01:13;13.80;1.00
3794;DHT22;1912;51.358;12.282;2023-09-30T04:03:40;13.90;1.00
3794;DHT22;1912;51.358;12.282;2023-09-30T04:06:07;13.70;1.00
3794;DHT22;1912;51.358;12.282;2023-09-30T04:08:33;13.70;1.00
3794;DHT22;1912;51.358;12.282;2023-09-30T04:11:00;13.70;1.00
3794;DHT22;1912;51.358;12.282;2023-09-30T04:13:26;13.70;1.00
3794;DHT22;1912;51.358;12.282;2023-09-30T04:15:53;13.60;1.00
3794;DHT22;1912;51.358;12.282;2023-09-30T04:18:19;13.50;1.00
3794;DHT22;1912;51.358;12.282;2023-09-30T04:20:47;13.50;1.00
3794;DHT22;1912;51.358;12.282;2023-09-30T04:23:13;13.50;1.00
3794;DHT22;1912;51.358;12.282;2023-09-30T04:25:40;13.60;1.00
3794;DHT22;1912;51.358;12.282;2023-09-30T04:28:06;13.60;1.00
3794;DHT22;1912;51.358;12.282;2023-09-30T04:30:33;13.60;1.00
3794;DHT22;1912;51.358;12.282;2023-09-30T04:32:59;13.60;1.00
3794;DHT22;1912;51.358;12.282;2023-09-30T04:35:26;13.70;1.00
3794;DHT22;1912;51.358;12.282;2023-09-30T04:37:52;13.70;1.00
3794;DHT22;1912;51.358;12.282;2023-09-30T04:40:18;13.80;1.00
3794;DHT22;1912;51.358;12.282;2023-09-30T04:42:47;13.70;1.00
3794;DHT22;1912;51.358;12.282;2023-09-30T04:45:14;13.60;1.00
3794;DHT22;1912;51.358;12.282;2023-09-30T04:47:45;13.60;1.00
3794;DHT22;1912;51.358;12.282;2023-09-30T04:50:11;13.60;1.00
3794;DHT22;1912;51.358;12.282;2023-09-30T04:52:38;13.60;1.00
3794;DHT22;1912;51.358;12.282;2023-09-30T04:55:06;13.60;1.00
3794;DHT22;1912;51.358;12.282;2023-09-30T04:57:33;13.70;1.00
3794;DHT22;1912;51.358;12.282;2023-09-30T04:59:59;13.70;1.00
3794;DHT22;1912;51.358;12.282;2023-09-30T05:02:25;13.70;1.00
3794;DHT22;1912;51.358;12.282;2023-09-30T05:04:52;13.70;1.00
3794;DHT22;1912;51.358;12.282;2023-09-30T05:07:22;13.60;1.00
3794;DHT22;1912;51.358;12.282;2023-09-30T05:09:48;13.50;1.00
3794;DHT22;1912;51.358;12.282;2023-09-30T05:12:13;13.50;1.00
3794;DHT22;1912;51.358;12.282;2023-09-30T05:14:40;13.40;1.00
3794;DHT22;1912;51.358;12.282;2023-09-30T05:17:06;13.40;1.00
3794;DHT22;1912;51.358;12.282;2023-09-30T05:19:33;13.40;1.00
3794;DHT22;1912;51.358;12.282;2023-09-30T05:21:59;13.40;1.00
3794;DHT22;1912;51.358;12.282;2023-09-30T05:24:27;13.40;1.00
3794;DHT22;1912;51.358;12.282;2023-09-30T05:26:53;13.40;1.00
3794;DHT22;1912;51.358;12.282;2023-09-30T05:29:19;13.30;1.00
3794;DHT22;1912;51.358;12.282;2023-09-30T05:31:45;13.30;1.00
3794;DHT22;1912;51.358;12.282;2023-09-30T05:34:11;13.20;1.00
3794;DHT22;1912;51.358;12.282;2023-09-30T05:36:37;13.20;1.00
3794;DHT22;1912;51.358;12.282;2023-09-30T05:39:03;13.30;1.00
3794;DHT22;1912;51.358;12.282;2023-09-30T05:41:30;13.30;1.00
3794;DHT22;1912;51.358;12.282;2023-09-30T05:43:56;13.20;1.00
3794;DHT22;1912;51.358;12.282;2023-09-30T05:46:25;13.20;1.00
3794;DHT22;1912;51.358;12.282;2023-09-30T05:48:52;13.20;1.00
3794;DHT22;1912;51.358;12.282;2023-09-30T05:51:18;13.20;1.00
3794;DHT22;1912;51.358;12.282;2023-09-30T05:53:44;13.10;1.00
3794;DHT22;1912;51.358;12.282;2023-09-30T05:56:10;13.10;1.00
3794;DHT22;1912;51.358;12.282;2023-09-30T05:58:41;13.00;1.00
3794;DHT22;1912;51.358;12.282;2023-09-30T06:01:08;13.00;1.00
3794;DHT22;1912;51.358;12.282;2023-09-30T06:03:38;13.00;1.00
3794;DHT22;1912;51.358;12.282;2023-09-30T06:06:13;13.10;1.00
3794;DHT22;1912;51.358;12.282;2023-09-30T06:08:44;13.10;1.00
3794;DHT22;1912;51.358;12.282;2023-09-30T06:11:19;13.10;1.00
3794;DHT22;1912;51.358;12.282;2023-09-30T06:13:56;13.10;1.00
3794;DHT22;1912;51.358;12.282;2023-09-30T06:16:26;13.20;1.00
3794;DHT22;1912;51.358;12.282;2023-09-30T06:18:53;13.10;1.00
3794;DHT22;1912;51.358;12.282;2023-09-30T06:21:20;13.20;1.00
3794;DHT22;1912;51.358;12.282;2023-09-30T06:23:49;13.30;1.00
3794;DHT22;1912;51.358;12.282;2023-09-30T06:26:17;13.60;1.00
3794;DHT22;1912;51.358;12.282;2023-09-30T06:28:44;13.70;1.00
3794;DHT22;1912;51.358;12.282;2023-09-30T06:31:10;13.70;1.00
3794;DHT22;1912;51.358;12.282;2023-09-30T06:33:37;13.60;1.00
3794;DHT22;1912;51.358;12.282;2023-09-30T06:36:11;13.70;1.00
3794;DHT22;1912;51.358;12.282;2023-09-30T06:38:39;13.70;1.00
3794;DHT22;1912;51.358;12.282;2023-09-30T06:41:05;13.80;1.00
3794;DHT22;1912;51.358;12.282;2023-09-30T06:43:32;13.90;1.00
3794;DHT22;1912;51.358;12.282;2023-09-30T06:45:58;13.90;1.00
3794;DHT22;1912;51.358;12.282;2023-09-30T06:48:24;14.00;1.00
3794;DHT22;1912;51.358;12.282;2023-09-30T06:50:50;14.00;1.00
3794;DHT22;1912;51.358;12.282;2023-09-30T06:53:18;14.10;1.00
3794;DHT22;1912;51.358;12.282;2023-09-30T06:55:45;14.10;1.00
3794;DHT22;1912;51.358;12.282;2023-09-30T06:58:11;14.10;1.00
3794;DHT22;1912;51.358;12.282;2023-09-30T07:00:38;14.10;1.00
3794;DHT22;1912;51.358;12.282;2023-09-30T07:03:04;14.10;1.00
3794;DHT22;1912;51.358;12.282;2023-09-30T07:05:30;14.10;1.00
3794;DHT22;1912;51.358;12.282;2023-09-30T07:07:56;14.20;1.00
3794;DHT22;1912;51.358;12.282;2023-09-30T07:10:22;14.30;1.00
3794;DHT22;1912;51.358;12.282;2023-09-30T07:12:47;14.40;1.00
3794;DHT22;1912;51.358;12.282;2023-09-30T07:15:13;14.40;1.00
3794;DHT22;1912;51.358;12.282;2023-09-30T07:17:40;14.50;1.00
3794;DHT22;1912;51.358;12.282;2023-09-30T07:20:06;14.50;1.00
3794;DHT22;1912;51.358;12.282;2023-09-30T07:22:33;14.50;1.00
3794;DHT22;1912;51.358;12.282;2023-09-30T07:24:59;14.40;1.00
3794;DHT22;1912;51.358;12.282;2023-09-30T07:27:25;14.50;1.00
3794;DHT22;1912;51.358;12.282;2023-09-30T07:29:51;14.50;1.00
3794;DHT22;1912;51.358;12.282;2023-09-30T07:32:17;14.70;1.00
3794;DHT22;1912;51.358;12.282;2023-09-30T07:34:42;14.70;1.00
3794;DHT22;1912;51.358;12.282;2023-09-30T07:37:09;14.70;1.00
3794;DHT22;1912;51.358;12.282;2023-09-30T07:39:35;14.80;1.00
3794;DHT22;1912;51.358;12.282;2023-09-30T07:42:01;14.80;1.00
3794;DHT22;1912;51.358;12.282;2023-09-30T07:44:27;15.00;1.00
3794;DHT22;1912;51.358;12.282;2023-09-30T07:46:53;15.20;1.00
3794;DHT22;1912;51.358;12.282;2023-09-30T07:49:19;15.50;1.00
3794;DHT22;1912;51.358;12.282;2023-09-30T07:51:45;15.60;1.00
3794;DHT22;1912;51.358;12.282;2023-09-30T07:54:11;15.70;1.00
3794;DHT22;1912;51.358;12.282;2023-09-30T07:56:37;15.50;1.00
3794;DHT22;1912;51.358;12.282;2023-09-30T07:59:04;15.60;1.00
3794;DHT22;1912;51.358;12.282;2023-09-30T08:01:31;15.70;1.00
3794;DHT22;1912;51.358;12.282;2023-09-30T08:03:57;15.50;1.00
3794;DHT22;1912;51.358;12.282;2023-09-30T08:06:23;15.60;1.00
3794;DHT22;1912;51.358;12.282;2023-09-30T08:08:49;15.50;1.00
3794;DHT22;1912;51.358;12.282;2023-09-30T08:11:15;15.70;1.00
3794;DHT22;1912;51.358;12.282;2023-09-30T08:13:41;15.80;1.00
3794;DHT22;1912;51.358;12.282;2023-09-30T08:16:06;16.00;1.00
3794;DHT22;1912;51.358;12.282;2023-09-30T08:18:32;16.00;1.00
3794;DHT22;1912;51.358;12.282;2023-09-30T08:20:58;16.10;1.00
3794;DHT22;1912;51.358;12.282;2023-09-30T08:23:24;16.70;1.00
3794;DHT22;1912;51.358;12.282;2023-09-30T08:25:49;17.00;1.00
3794;DHT22;1912;51.358;12.282;2023-09-30T08:28:19;17.10;1.00
3794;DHT22;1912;51.358;12.282;2023-09-30T08:30:46;17.40;1.00
3794;DHT22;1912;51.358;12.282;2023-09-30T08:33:11;17.60;1.00
3794;DHT22;1912;51.358;12.282;2023-09-30T08:35:37;17.80;1.00
3794;DHT22;1912;51.358;12.282;2023-09-30T08:38:03;18.20;1.00
3794;DHT22;1912;51.358;12.282;2023-09-30T08:40:32;18.20;1.00
3794;DHT22;1912;51.358;12.282;2023-09-30T08:42:58;18.20;1.00
3794;DHT22;1912;51.358;12.282;2023-09-30T08:45:27;18.40;1.00
3794;DHT22;1912;51.358;12.282;2023-09-30T08:47:54;18.40;1.00
3794;DHT22;1912;51.358;12.282;2023-09-30T08:50:21;18.50;1.00
3794;DHT22;1912;51.358;12.282;2023-09-30T08:52:47;18.50;1.00
3794;DHT22;1912;51.358;12.282;2023-09-30T08:55:14;18.90;1.00
3794;DHT22;1912;51.358;12.282;2023-09-30T08:57:42;19.10;1.00
3794;DHT22;1912;51.358;12.282;2023-09-30T09:00:10;19.20;1.00
3794;DHT22;1912;51.358;12.282;2023-09-30T09:02:37;19.30;1.00
3794;DHT22;1912;51.358;12.282;2023-09-30T09:05:04;19.50;1.00
3794;DHT22;1912;51.358;12.282;2023-09-30T09:07:30;19.40;1.00
3794;DHT22;1912;51.358;12.282;2023-09-30T09:10:08;19.40;1.00
3794;DHT22;1912;51.358;12.282;2023-09-30T09:12:37;19.70;1.00
3794;DHT22;1912;51.358;12.282;2023-09-30T09:15:11;19.60;1.00
3794;DHT22;1912;51.358;12.282;2023-09-30T09:17:46;19.10;1.00
3794;DHT22;1912;51.358;12.282;2023-09-30T09:20:17;19.10;1.00
3794;DHT22;1912;51.358;12.282;2023-09-30T09:22:46;19.10;1.00
3794;DHT22;1912;51.358;12.282;2023-09-30T09:25:13;19.10;1.00
3794;DHT22;1912;51.358;12.282;2023-09-30T09:27:39;19.40;1.00
3794;DHT22;1912;51.358;12.282;2023-09-30T09:30:18;19.20;1.00
3794;DHT22;1912;51.358;12.282;2023-09-30T09:32:54;19.20;1.00
3794;DHT22;1912;51.358;12.282;2023-09-30T09:35:21;19.70;1.00
3794;DHT22;1912;51.358;12.282;2023-09-30T09:38:04;20.00;1.00
3794;DHT22;1912;51.358;12.282;2023-09-30T09:40:36;20.10;1.00
3794;DHT22;1912;51.358;12.282;2023-09-30T09:43:06;20.10;1.00
3794;DHT22;1912;51.358;12.282;2023-09-30T09:45:36;20.30;1.00
3794;DHT22;1912;51.358;12.282;2023-09-30T09:48:04;20.40;1.00
3794;DHT22;1912;51.358;12.282;2023-09-30T09:50:30;20.80;1.00
3794;DHT22;1912;51.358;12.282;2023-09-30T09:53:01;21.10;1.00
3794;DHT22;1912;51.358;12.282;2023-09-30T09:55:30;20.70;1.00
3794;DHT22;1912;51.358;12.282;2023-09-30T09:57:56;20.40;1.00
3794;DHT22;1912;51.358;12.282;2023-09-30T10:00:25;20.10;1.00
3794;DHT22;1912;51.358;12.282;2023-09-30T10:02:51;20.00;1.00
3794;DHT22;1912;51.358;12.282;2023-09-30T10:05:18;20.30;1.00
3794;DHT22;1912;51.358;12.282;2023-09-30T10:07:57;20.80;1.00
3794;DHT22;1912;51.358;12.282;2023-09-30T10:10:27;21.30;1.00
3794;DHT22;1912;51.358;12.282;2023-09-30T10:12:53;21.90;1.00
3794;DHT22;1912;51.358;12.282;2023-09-30T10:20:35;21.30;1.00
3794;DHT22;1912;51.358;12.282;2023-09-30T10:25:48;21.40;1.00
3794;DHT22;1912;51.358;12.282;2023-09-30T10:31:17;22.00;1.00
3794;DHT22;1912;51.358;12.282;2023-09-30T10:36:34;22.70;1.00
3794;DHT22;1912;51.358;12.282;2023-09-30T10:39:03;22.10;1.00
3794;DHT22;1912;51.358;12.282;2023-09-30T10:47:00;22.90;1.00
3794;DHT22;1912;51.358;12.282;2023-09-30T10:49:46;23.20;1.00
3794;DHT22;1912;51.358;12.282;2023-09-30T10:52:21;23.10;1.00
3794;DHT22;1912;51.358;12.282;2023-09-30T10:54:49;23.70;1.00
3794;DHT22;1912;51.358;12.282;2023-09-30T10:57:26;23.60;1.00
3794;DHT22;1912;51.358;12.282;2023-09-30T11:00:11;23.60;1.00
3794;DHT22;1912;51.358;12.282;2023-09-30T11:02:51;22.80;1.00
3794;DHT22;1912;51.358;12.282;2023-09-30T11:05:19;21.90;1.00
3794;DHT22;1912;51.358;12.282;2023-09-30T11:07:48;22.30;1.00
3794;DHT22;1912;51.358;12.282;2023-09-30T11:10:19;22.70;1.00
3794;DHT22;1912;51.358;12.282;2023-09-30T11:12:58;23.00;1.00
3794;DHT22;1912;51.358;12.282;2023-09-30T11:15:24;22.70;1.00
3794;DHT22;1912;51.358;12.282;2023-09-30T11:17:52;22.80;1.00
3794;DHT22;1912;51.358;12.282;2023-09-30T11:20:18;22.70;1.00
3794;DHT22;1912;51.358;12.282;2023-09-30T11:22:45;22.90;1.00
3794;DHT22;1912;51.358;12.282;2023-09-30T11:25:16;22.60;1.00
3794;DHT22;1912;51.358;12.282;2023-09-30T11:27:43;23.20;1.00
3794;DHT22;1912;51.358;12.282;2023-09-30T11:30:10;23.40;1.00
3794;DHT22;1912;51.358;12.282;2023-09-30T11:32:36;22.70;1.00
3794;DHT22;1912;51.358;12.282;2023-09-30T11:35:25;23.10;1.00
3794;DHT22;1912;51.358;12.282;2023-09-30T11:37:51;23.60;1.00
3794;DHT22;1912;51.358;12.282;2023-09-30T11:40:17;23.60;1.00
3794;DHT22;1912;51.358;12.282;2023-09-30T11:43:08;23.40;1.00
3794;DHT22;1912;51.358;12.282;2023-09-30T11:45:37;23.30;1.00
3794;DHT22;1912;51.358;12.282;2023-09-30T11:48:17;23.60;1.00
3794;DHT22;1912;51.358;12.282;2023-09-30T11:50:47;23.10;1.00
3794;DHT22;1912;51.358;12.282;2023-09-30T11:53:19;23.20;1.00
3794;DHT22;1912;51.358;12.282;2023-09-30T11:55:46;23.80;1.00
3794;DHT22;1912;51.358;12.282;2023-09-30T11:58:11;23.80;1.00
3794;DHT22;1912;51.358;12.282;2023-09-30T12:00:41;23.20;1.00
3794;DHT22;1912;51.358;12.282;2023-09-30T12:03:07;23.50;1.00
3794;DHT22;1912;51.358;12.282;2023-09-30T12:05:32;23.70;1.00
3794;DHT22;1912;51.358;12.282;2023-09-30T12:07:58;23.40;1.00
3794;DHT22;1912;51.358;12.282;2023-09-30T12:10:24;23.20;1.00
3794;DHT22;1912;51.358;12.282;2023-09-30T12:12:51;23.50;1.00
3794;DHT22;1912;51.358;12.282;2023-09-30T12:15:17;23.90;1.00
3794;DHT22;1912;51.358;12.282;2023-09-30T12:17:45;24.40;1.00
3794;DHT22;1912;51.358;12.282;2023-09-30T12:20:11;24.20;1.00
3794;DHT22;1912;51.358;12.282;2023-09-30T12:22:39;23.70;1.00
3794;DHT22;1912;51.358;12.282;2023-09-30T12:25:06;23.80;1.00
3794;DHT22;1912;51.358;12.282;2023-09-30T12:27:33;23.80;1.00
3794;DHT22;1912;51.358;12.282;2023-09-30T12:29:59;23.50;1.00
3794;DHT22;1912;51.358;12.282;2023-09-30T12:32:27;23.90;1.00
3794;DHT22;1912;51.358;12.282;2023-09-30T12:34:53;23.80;1.00
3794;DHT22;1912;51.358;12.282;2023-09-30T12:37:19;23.20;1.00
3794;DHT22;1912;51.358;12.282;2023-09-30T12:39:45;23.00;1.00
3794;DHT22;1912;51.358;12.282;2023-09-30T12:42:11;23.20;1.00
3794;DHT22;1912;51.358;12.282;2023-09-30T12:44:38;23.70;1.00
3794;DHT22;1912;51.358;12.282;2023-09-30T12:47:04;24.00;1.00
3794;DHT22;1912;51.358;12.282;2023-09-30T12:49:30;23.80;1.00
3794;DHT22;1912;51.358;12.282;2023-09-30T12:51:57;24.10;1.00
3794;DHT22;1912;51.358;12.282;2023-09-30T12:54:24;23.80;1.00
3794;DHT22;1912;51.358;12.282;2023-09-30T12:56:51;23.70;1.00
3794;DHT22;1912;51.358;12.282;2023-09-30T12:59:17;24.10;1.00
3794;DHT22;1912;51.358;12.282;2023-09-30T13:01:43;24.20;1.00
3794;DHT22;1912;51.358;12.282;2023-09-30T13:04:13;24.40;1.00
3794;DHT22;1912;51.358;12.282;2023-09-30T13:06:39;24.60;1.00
3794;DHT22;1912;51.358;12.282;2023-09-30T13:09:06;24.90;1.00
3794;DHT22;1912;51.358;12.282;2023-09-30T13:11:34;24.70;1.00
3794;DHT22;1912;51.358;12.282;2023-09-30T13:13:59;24.60;1.00
3794;DHT22;1912;51.358;12.282;2023-09-30T13:16:25;24.40;1.00
3794;DHT22;1912;51.358;12.282;2023-09-30T13:18:51;24.70;1.00
3794;DHT22;1912;51.358;12.282;2023-09-30T13:21:19;25.10;1.00
3794;DHT22;1912;51.358;12.282;2023-09-30T13:23:45;24.90;1.00
3794;DHT22;1912;51.358;12.282;2023-09-30T13:26:11;24.70;1.00
3794;DHT22;1912;51.358;12.282;2023-09-30T13:28:37;24.60;1.00
3794;DHT22;1912;51.358;12.282;2023-09-30T13:31:03;24.30;1.00
3794;DHT22;1912;51.358;12.282;2023-09-30T13:33:29;24.00;1.00
3794;DHT22;1912;51.358;12.282;2023-09-30T13:35:54;23.80;1.00
3794;DHT22;1912;51.358;12.282;2023-09-30T13:38:21;24.30;1.00
3794;DHT22;1912;51.358;12.282;2023-09-30T13:40:47;24.30;1.00
3794;DHT22;1912;51.358;12.282;2023-09-30T13:43:12;24.30;1.00
3794;DHT22;1912;51.358;12.282;2023-09-30T13:45:38;24.10;1.00
3794;DHT22;1912;51.358;12.282;2023-09-30T13:48:04;23.90;1.00
3794;DHT22;1912;51.358;12.282;2023-09-30T13:50:31;24.00;1.00
3794;DHT22;1912;51.358;12.282;2023-09-30T13:52:57;23.80;1.00
3794;DHT22;1912;51.358;12.282;2023-09-30T13:55:23;23.90;1.00
3794;DHT22;1912;51.358;12.282;2023-09-30T13:57:49;24.00;1.00
3794;DHT22;1912;51.358;12.282;2023-09-30T14:00:15;23.60;1.00
3794;DHT22;1912;51.358;12.282;2023-09-30T14:02:42;23.60;1.00
3794;DHT22;1912;51.358;12.282;2023-09-30T14:05:09;23.60;1.00
3794;DHT22;1912;51.358;12.282;2023-09-30T14:07:39;23.80;1.00
3794;DHT22;1912;51.358;12.282;2023-09-30T14:10:08;23.60;1.00
3794;DHT22;1912;51.358;12.282;2023-09-30T14:12:36;23.50;1.00
3794;DHT22;1912;51.358;12.282;2023-09-30T14:15:03;23.60;1.00
3794;DHT22;1912;51.358;12.282;2023-09-30T14:17:30;23.30;1.00
3794;DHT22;1912;51.358;12.282;2023-09-30T14:19:56;23.60;1.00
3794;DHT22;1912;51.358;12.282;2023-09-30T14:22:22;23.60;1.00
3794;DHT22;1912;51.358;12.282;2023-09-30T14:24:47;23.20;1.00
3794;DHT22;1912;51.358;12.282;2023-09-30T14:27:13;22.90;1.00
3794;DHT22;1912;51.358;12.282;2023-09-30T14:29:40;22.90;1.00
3794;DHT22;1912;51.358;12.282;2023-09-30T14:32:07;23.10;1.00
3794;DHT22;1912;51.358;12.282;2023-09-30T14:34:33;23.30;1.00
3794;DHT22;1912;51.358;12.282;2023-09-30T14:36:58;23.80;1.00
3794;DHT22;1912;51.358;12.282;2023-09-30T14:39:24;23.90;1.00
3794;DHT22;1912;51.358;12.282;2023-09-30T14:41:50;23.50;1.00
3794;DHT22;1912;51.358;12.282;2023-09-30T14:44:15;23.30;1.00
3794;DHT22;1912;51.358;12.282;2023-09-30T14:46:42;23.20;1.00
3794;DHT22;1912;51.358;12.282;2023-09-30T14:49:09;23.40;1.00
3794;DHT22;1912;51.358;12.282;2023-09-30T14:51:36;23.40;1.00
3794;DHT22;1912;51.358;12.282;2023-09-30T14:54:03;23.20;1.00
3794;DHT22;1912;51.358;12.282;2023-09-30T14:56:29;23.40;1.00
3794;DHT22;1912;51.358;12.282;2023-09-30T14:58:55;23.00;1.00
3794;DHT22;1912;51.358;12.282;2023-09-30T15:01:21;23.30;1.00
3794;DHT22;1912;51.358;12.282;2023-09-30T15:03:47;23.40;1.00
3794;DHT22;1912;51.358;12.282;2023-09-30T15:06:13;23.00;1.00
3794;DHT22;1912;51.358;12.282;2023-09-30T15:08:39;22.70;1.00
3794;DHT22;1912;51.358;12.282;2023-09-30T15:11:05;22.50;1.00
3794;DHT22;1912;51.358;12.282;2023-09-30T15:13:31;22.70;1.00
3794;DHT22;1912;51.358;12.282;2023-09-30T15:15:57;22.50;1.00
3794;DHT22;1912;51.358;12.282;2023-09-30T15:18:23;22.40;1.00
3794;DHT22;1912;51.358;12.282;2023-09-30T15:20:51;22.30;1.00
3794;DHT22;1912;51.358;12.282;2023-09-30T15:23:17;22.40;1.00
3794;DHT22;1912;51.358;12.282;2023-09-30T15:25:46;22.40;1.00
3794;DHT22;1912;51.358;12.282;2023-09-30T15:28:13;22.40;1.00
3794;DHT22;1912;51.358;12.282;2023-09-30T15:30:39;22.20;1.00
3794;DHT22;1912;51.358;12.282;2023-09-30T15:33:05;21.90;1.00
3794;DHT22;1912;51.358;12.282;2023-09-30T15:35:31;21.90;1.00
3794;DHT22;1912;51.358;12.282;2023-09-30T15:37:57;21.80;1.00
3794;DHT22;1912;51.358;12.282;2023-09-30T15:40:23;21.90;1.00
3794;DHT22;1912;51.358;12.282;2023-09-30T15:42:49;21.70;1.00
3794;DHT22;1912;51.358;12.282;2023-09-30T15:45:15;21.60;1.00
3794;DHT22;1912;51.358;12.282;2023-09-30T15:47:43;21.50;1.00
3794;DHT22;1912;51.358;12.282;2023-09-30T15:50:10;21.40;1.00
3794;DHT22;1912;51.358;12.282;2023-09-30T15:52:36;21.20;1.00
3794;DHT22;1912;51.358;12.282;2023-09-30T15:55:02;21.20;1.00
3794;DHT22;1912;51.358;12.282;2023-09-30T15:57:28;21.20;1.00
3794;DHT22;1912;51.358;12.282;2023-09-30T15:59:53;21.20;1.00
3794;DHT22;1912;51.358;12.282;2023-09-30T16:02:19;21.10;1.00
3794;DHT22;1912;51.358;12.282;2023-09-30T16:04:45;20.90;1.00
3794;DHT22;1912;51.358;12.282;2023-09-30T16:07:11;20.70;1.00
3794;DHT22;1912;51.358;12.282;2023-09-30T16:09:36;20.40;1.00
3794;DHT22;1912;51.358;12.282;2023-09-30T16:12:03;20.40;1.00
3794;DHT22;1912;51.358;12.282;2023-09-30T16:14:30;20.40;1.00
3794;DHT22;1912;51.358;12.282;2023-09-30T16:16:56;20.40;1.00
3794;DHT22;1912;51.358;12.282;2023-09-30T16:19:22;20.30;1.00
3794;DHT22;1912;51.358;12.282;2023-09-30T16:21:49;20.30;1.00
3794;DHT22;1912;51.358;12.282;2023-09-30T16:24:14;20.20;1.00
3794;DHT22;1912;51.358;12.282;2023-09-30T16:26:41;20.10;1.00
3794;DHT22;1912;51.358;12.282;2023-09-30T16:29:07;20.00;1.00
3794;DHT22;1912;51.358;12.282;2023-09-30T16:31:32;19.90;1.00
3794;DHT22;1912;51.358;12.282;2023-09-30T16:33:59;19.70;1.00
3794;DHT22;1912;51.358;12.282;2023-09-30T16:36:25;19.60;1.00
3794;DHT22;1912;51.358;12.282;2023-09-30T16:38:51;19.40;1.00
3794;DHT22;1912;51.358;12.282;2023-09-30T16:41:16;19.20;1.00
3794;DHT22;1912;51.358;12.282;2023-09-30T16:43:42;19.10;1.00
3794;DHT22;1912;51.358;12.282;2023-09-30T16:46:08;19.00;1.00
3794;DHT22;1912;51.358;12.282;2023-09-30T16:48:34;18.90;1.00
3794;DHT22;1912;51.358;12.282;2023-09-30T16:51:00;18.90;1.00
3794;DHT22;1912;51.358;12.282;2023-09-30T16:53:26;18.90;1.00
3794;DHT22;1912;51.358;12.282;2023-09-30T16:55:51;18.90;1.00
3794;DHT22;1912;51.358;12.282;2023-09-30T16:58:18;18.90;1.00
3794;DHT22;1912;51.358;12.282;2023-09-30T17:00:44;18.80;1.00
3794;DHT22;1912;51.358;12.282;2023-09-30T17:03:09;18.70;1.00
3794;DHT22;1912;51.358;12.282;2023-09-30T17:05:37;18.50;1.00
3794;DHT22;1912;51.358;12.282;2023-09-30T17:08:04;18.50;1.00
3794;DHT22;1912;51.358;12.282;2023-09-30T17:10:31;18.40;1.00
3794;DHT22;1912;51.358;12.282;2023-09-30T17:12:57;18.30;1.00
3794;DHT22;1912;51.358;12.282;2023-09-30T17:15:23;18.30;1.00
3794;DHT22;1912;51.358;12.282;2023-09-30T17:17:49;18.30;1.00
3794;DHT22;1912;51.358;12.282;2023-09-30T17:20:15;18.30;1.00
3794;DHT22;1912;51.358;12.282;2023-09-30T17:22:41;18.20;1.00
3794;DHT22;1912;51.358;12.282;2023-09-30T17:25:07;18.10;1.00
3794;DHT22;1912;51.358;12.282;2023-09-30T17:27:34;18.00;1.00
3794;DHT22;1912;51.358;12.282;2023-09-30T17:30:00;17.80;1.00
3794;DHT22;1912;51.358;12.282;2023-09-30T17:32:25;17.70;1.00
3794;DHT22;1912;51.358;12.282;2023-09-30T17:34:52;17.60;1.00
3794;DHT22;1912;51.358;12.282;2023-09-30T17:37:17;17.60;1.00
3794;DHT22;1912;51.358;12.282;2023-09-30T17:39:44;17.60;1.00
3794;DHT22;1912;51.358;12.282;2023-09-30T17:42:11;17.50;1.00
3794;DHT22;1912;51.358;12.282;2023-09-30T17:44:38;17.40;1.00
3794;DHT22;1912;51.358;12.282;2023-09-30T17:47:04;17.40;1.00
3794;DHT22;1912;51.358;12.282;2023-09-30T17:49:30;17.30;1.00
3794;DHT22;1912;51.358;12.282;2023-09-30T17:51:55;17.20;1.00
3794;DHT22;1912;51.358;12.282;2023-09-30T17:54:22;17.20;1.00
3794;DHT22;1912;51.358;12.282;2023-09-30T17:56:48;17.10;1.00
3794;DHT22;1912;51.358;12.282;2023-09-30T17:59:14;17.00;1.00
3794;DHT22;1912;51.358;12.282;2023-09-30T18:01:40;16.90;1.00
3794;DHT22;1912;51.358;12.282;2023-09-30T18:04:08;16.80;1.00
3794;DHT22;1912;51.358;12.282;2023-09-30T18:06:35;16.70;1.00
3794;DHT22;1912;51.358;12.282;2023-09-30T18:09:01;16.70;1.00
3794;DHT22;1912;51.358;12.282;2023-09-30T18:11:28;16.60;1.00
3794;DHT22;1912;51.358;12.282;2023-09-30T18:13:54;16.60;1.00
3794;DHT22;1912;51.358;12.282;2023-09-30T18:16:20;16.50;1.00
3794;DHT22;1912;51.358;12.282;2023-09-30T18:18:48;16.40;1.00
3794;DHT22;1912;51.358;12.282;2023-09-30T18:21:14;16.30;1.00
3794;DHT22;1912;51.358;12.282;2023-09-30T18:23:40;16.10;1.00
3794;DHT22;1912;51.358;12.282;2023-09-30T18:26:06;16.10;1.00
3794;DHT22;1912;51.358;12.282;2023-09-30T18:28:32;16.10;1.00
3794;DHT22;1912;51.358;12.282;2023-09-30T18:31:00;16.00;1.00
3794;DHT22;1912;51.358;12.282;2023-09-30T18:33:26;15.90;1.00
3794;DHT22;1912;51.358;12.282;2023-09-30T18:35:52;15.80;1.00
3794;DHT22;1912;51.358;12.282;2023-09-30T18:38:18;15.80;1.00
3794;DHT22;1912;51.358;12.282;2023-09-30T18:40:44;15.80;1.00
3794;DHT22;1912;51.358;12.282;2023-09-30T18:43:13;15.70;1.00
3794;DHT22;1912;51.358;12.282;2023-09-30T18:45:44;15.70;1.00
3794;DHT22;1912;51.358;12.282;2023-09-30T18:48:11;15.50;1.00
3794;DHT22;1912;51.358;12.282;2023-09-30T18:50:39;15.50;1.00
3794;DHT22;1912;51.358;12.282;2023-09-30T18:53:12;15.40;1.00
3794;DHT22;1912;51.358;12.282;2023-09-30T18:55:39;15.30;1.00
3794;DHT22;1912;51.358;12.282;2023-09-30T18:58:06;15.20;1.00
3794;DHT22;1912;51.358;12.282;2023-09-30T19:00:34;15.10;1.00
3794;DHT22;1912;51.358;12.282;2023-09-30T19:03:01;15.00;1.00
3794;DHT22;1912;51.358;12.282;2023-09-30T19:05:28;15.00;1.00
3794;DHT22;1912;51.358;12.282;2023-09-30T19:07:55;14.90;1.00
3794;DHT22;1912;51.358;12.282;2023-09-30T19:10:22;15.00;1.00
3794;DHT22;1912;51.358;12.282;2023-09-30T19:12:49;14.90;1.00
3794;DHT22;1912;51.358;12.282;2023-09-30T19:15:15;14.90;1.00
3794;DHT22;1912;51.358;12.282;2023-09-30T19:17:41;14.80;1.00
3794;DHT22;1912;51.358;12.282;2023-09-30T19:20:08;14.80;1.00
3794;DHT22;1912;51.358;12.282;2023-09-30T19:22:34;14.80;1.00
3794;DHT22;1912;51.358;12.282;2023-09-30T19:25:00;14.70;1.00
3794;DHT22;1912;51.358;12.282;2023-09-30T19:27:26;14.70;1.00
3794;DHT22;1912;51.358;12.282;2023-09-30T19:29:51;14.60;1.00
3794;DHT22;1912;51.358;12.282;2023-09-30T19:32:18;14.50;1.00
3794;DHT22;1912;51.358;12.282;2023-09-30T19:34:43;14.40;1.00
3794;DHT22;1912;51.358;12.282;2023-09-30T19:37:09;14.30;1.00
3794;DHT22;1912;51.358;12.282;2023-09-30T19:39:35;14.20;1.00
3794;DHT22;1912;51.358;12.282;2023-09-30T19:42:01;14.10;1.00
3794;DHT22;1912;51.358;12.282;2023-09-30T19:44:26;14.00;1.00
3794;DHT22;1912;51.358;12.282;2023-09-30T19:46:52;14.00;1.00
3794;DHT22;1912;51.358;12.282;2023-09-30T19:49:18;13.90;1.00
3794;DHT22;1912;51.358;12.282;2023-09-30T19:51:43;13.90;1.00
3794;DHT22;1912;51.358;12.282;2023-09-30T19:54:09;13.80;1.00
3794;DHT22;1912;51.358;12.282;2023-09-30T19:56:37;13.80;1.00
3794;DHT22;1912;51.358;12.282;2023-09-30T19:59:03;13.80;1.00
3794;DHT22;1912;51.358;12.282;2023-09-30T20:01:29;13.80;1.00
3794;DHT22;1912;51.358;12.282;2023-09-30T20:03:55;13.80;1.00
3794;DHT22;1912;51.358;12.282;2023-09-30T20:06:22;13.70;1.00